sensor_id;sensor_type;location;lat;lon;timestamp;temperature;humidity
7317;DHT22;3699;51.462;6.696;2023-01-01T00:00:30;16.80;74.80
7317;DHT22;3699;51.462;6.696;2023-01-01T00:02:56;16.90;75.60
7317;DHT22;3699;51.462;6.696;2023-01-01T00:05:23;16.80;73.60
7317;DHT22;3699;51.462;6.696;2023-01-01T00:07:50;16.90;73.30
7317;DHT22;3699;51.462;6.696;2023-01-01T00:10:18;16.90;75.90
7317;DHT22;3699;51.462;6.696;2023-01-01T00:12:53;16.90;72.80
7317;DHT22;3699;51.462;6.696;2023-01-01T00:15:20;16.90;74.80
7317;DHT22;3699;51.462;6.696;2023-01-01T00:17:46;16.90;73.10
7317;DHT22;3699;51.462;6.696;2023-01-01T00:20:13;16.90;73.30
7317;DHT22;3699;51.462;6.696;2023-01-01T00:22:40;16.80;72.20
7317;DHT22;3699;51.462;6.696;2023-01-01T00:25:07;16.80;74.70
7317;DHT22;3699;51.462;6.696;2023-01-01T00:27:35;16.80;71.70
7317;DHT22;3699;51.462;6.696;2023-01-01T00:30:03;16.80;70.20
7317;DHT22;3699;51.462;6.696;2023-01-01T00:32:29;16.80;71.30
7317;DHT22;3699;51.462;6.696;2023-01-01T00:34:56;16.80;71.10
7317;DHT22;3699;51.462;6.696;2023-01-01T00:37:23;16.80;70.70
7317;DHT22;3699;51.462;6.696;2023-01-01T00:39:49;16.80;68.70
7317;DHT22;3699;51.462;6.696;2023-01-01T00:42:16;16.80;67.50
7317;DHT22;3699;51.462;6.696;2023-01-01T00:44:45;16.90;67.20
7317;DHT22;3699;51.462;6.696;2023-01-01T00:47:11;16.80;66.70
7317;DHT22;3699;51.462;6.696;2023-01-01T00:49:38;16.70;67.40
7317;DHT22;3699;51.462;6.696;2023-01-01T00:52:05;16.80;66.60
7317;DHT22;3699;51.462;6.696;2023-01-01T00:54:31;16.80;66.00
7317;DHT22;3699;51.462;6.696;2023-01-01T00:56:58;16.70;66.20
7317;DHT22;3699;51.462;6.696;2023-01-01T00:59:25;16.70;66.80
7317;DHT22;3699;51.462;6.696;2023-01-01T01:01:53;16.70;62.20
7317;DHT22;3699;51.462;6.696;2023-01-01T01:04:20;16.70;62.80
7317;DHT22;3699;51.462;6.696;2023-01-01T01:06:46;16.70;63.40
7317;DHT22;3699;51.462;6.696;2023-01-01T01:09:13;16.70;63.00
7317;DHT22;3699;51.462;6.696;2023-01-01T01:11:40;16.60;61.80
7317;DHT22;3699;51.462;6.696;2023-01-01T01:14:07;16.60;59.00
7317;DHT22;3699;51.462;6.696;2023-01-01T01:16:34;16.50;58.40
7317;DHT22;3699;51.462;6.696;2023-01-01T01:19:03;16.60;58.10
7317;DHT22;3699;51.462;6.696;2023-01-01T01:21:32;15.30;58.60
7317;DHT22;3699;51.462;6.696;2023-01-01T01:24:01;16.60;59.40
7317;DHT22;3699;51.462;6.696;2023-01-01T01:26:29;16.60;58.60
7317;DHT22;3699;51.462;6.696;2023-01-01T01:28:57;16.50;56.40
7317;DHT22;3699;51.462;6.696;2023-01-01T01:31:26;16.50;55.50
7317;DHT22;3699;51.462;6.696;2023-01-01T01:33:53;16.50;53.50
7317;DHT22;3699;51.462;6.696;2023-01-01T01:36:21;16.50;54.20
7317;DHT22;3699;51.462;6.696;2023-01-01T01:38:48;16.70;55.30
7317;DHT22;3699;51.462;6.696;2023-01-01T01:41:17;16.50;54.70
7317;DHT22;3699;51.462;6.696;2023-01-01T01:43:49;16.50;52.60
7317;DHT22;3699;51.462;6.696;2023-01-01T01:46:19;16.50;51.60
7317;DHT22;3699;51.462;6.696;2023-01-01T01:48:48;16.50;51.50
7317;DHT22;3699;51.462;6.696;2023-01-01T01:51:20;16.50;51.10
7317;DHT22;3699;51.462;6.696;2023-01-01T01:53:51;16.40;51.60
7317;DHT22;3699;51.462;6.696;2023-01-01T01:56:23;16.40;51.10
7317;DHT22;3699;51.462;6.696;2023-01-01T01:58:51;16.40;51.70
7317;DHT22;3699;51.462;6.696;2023-01-01T02:01:17;16.40;51.30
7317;DHT22;3699;51.462;6.696;2023-01-01T02:03:48;16.40;51.90
7317;DHT22;3699;51.462;6.696;2023-01-01T02:06:16;16.40;53.40
7317;DHT22;3699;51.462;6.696;2023-01-01T02:08:44;16.30;52.60
7317;DHT22;3699;51.462;6.696;2023-01-01T02:11:13;16.30;52.80
7317;DHT22;3699;51.462;6.696;2023-01-01T02:13:40;16.20;52.10
7317;DHT22;3699;51.462;6.696;2023-01-01T02:16:12;16.20;52.40
7317;DHT22;3699;51.462;6.696;2023-01-01T02:18:45;16.30;53.50
7317;DHT22;3699;51.462;6.696;2023-01-01T02:21:19;16.30;52.90
7317;DHT22;3699;51.462;6.696;2023-01-01T02:23:57;16.20;52.90
7317;DHT22;3699;51.462;6.696;2023-01-01T02:26:43;16.10;53.80
7317;DHT22;3699;51.462;6.696;2023-01-01T02:29:36;16.10;54.00
7317;DHT22;3699;51.462;6.696;2023-01-01T02:32:08;16.10;53.10
7317;DHT22;3699;51.462;6.696;2023-01-01T02:34:38;16.10;53.30
7317;DHT22;3699;51.462;6.696;2023-01-01T02:37:08;16.10;54.40
7317;DHT22;3699;51.462;6.696;2023-01-01T02:39:38;16.00;53.70
7317;DHT22;3699;51.462;6.696;2023-01-01T02:42:07;16.00;54.20
7317;DHT22;3699;51.462;6.696;2023-01-01T02:44:38;16.00;54.10
7317;DHT22;3699;51.462;6.696;2023-01-01T02:47:10;16.00;55.40
7317;DHT22;3699;51.462;6.696;2023-01-01T02:49:41;16.00;56.10
7317;DHT22;3699;51.462;6.696;2023-01-01T02:52:10;15.90;54.80
7317;DHT22;3699;51.462;6.696;2023-01-01T02:54:43;15.90;55.90
7317;DHT22;3699;51.462;6.696;2023-01-01T02:57:18;15.80;56.10
7317;DHT22;3699;51.462;6.696;2023-01-01T03:00:00;15.90;57.20
7317;DHT22;3699;51.462;6.696;2023-01-01T03:02:58;15.80;57.60
7317;DHT22;3699;51.462;6.696;2023-01-01T03:05:33;15.80;57.50
7317;DHT22;3699;51.462;6.696;2023-01-01T03:08:29;15.80;58.50
7317;DHT22;3699;51.462;6.696;2023-01-01T03:11:02;15.80;57.90
7317;DHT22;3699;51.462;6.696;2023-01-01T03:13:35;15.80;58.70
7317;DHT22;3699;51.462;6.696;2023-01-01T03:16:08;15.80;59.60
7317;DHT22;3699;51.462;6.696;2023-01-01T03:18:41;15.80;58.40
7317;DHT22;3699;51.462;6.696;2023-01-01T03:21:12;15.80;59.90
7317;DHT22;3699;51.462;6.696;2023-01-01T03:23:45;15.70;60.60
7317;DHT22;3699;51.462;6.696;2023-01-01T03:26:15;15.80;61.80
7317;DHT22;3699;51.462;6.696;2023-01-01T03:28:47;15.80;63.30
7317;DHT22;3699;51.462;6.696;2023-01-01T03:31:18;15.80;61.50
7317;DHT22;3699;51.462;6.696;2023-01-01T03:33:49;15.80;61.80
7317;DHT22;3699;51.462;6.696;2023-01-01T03:36:20;15.80;61.60
7317;DHT22;3699;51.462;6.696;2023-01-01T03:38:51;15.80;64.00
7317;DHT22;3699;51.462;6.696;2023-01-01T03:41:22;15.90;65.10
7317;DHT22;3699;51.462;6.696;2023-01-01T03:43:52;15.80;63.70
7317;DHT22;3699;51.462;6.696;2023-01-01T03:46:23;15.90;64.30
7317;DHT22;3699;51.462;6.696;2023-01-01T03:48:52;15.80;66.00
7317;DHT22;3699;51.462;6.696;2023-01-01T03:51:26;15.80;65.20
7317;DHT22;3699;51.462;6.696;2023-01-01T03:54:01;15.80;67.20
7317;DHT22;3699;51.462;6.696;2023-01-01T03:56:36;15.80;69.10
7317;DHT22;3699;51.462;6.696;2023-01-01T03:59:10;15.80;69.70
7317;DHT22;3699;51.462;6.696;2023-01-01T04:01:43;15.80;71.00
7317;DHT22;3699;51.462;6.696;2023-01-01T04:04:11;15.80;74.30
7317;DHT22;3699;51.462;6.696;2023-01-01T04:06:38;15.80;74.50
7317;DHT22;3699;51.462;6.696;2023-01-01T04:09:08;15.80;75.20
7317;DHT22;3699;51.462;6.696;2023-01-01T04:11:40;15.80;76.30
7317;DHT22;3699;51.462;6.696;2023-01-01T04:14:26;15.80;80.70
7317;DHT22;3699;51.462;6.696;2023-01-01T04:16:55;15.70;79.20
7317;DHT22;3699;51.462;6.696;2023-01-01T04:19:22;15.70;79.90
7317;DHT22;3699;51.462;6.696;2023-01-01T04:21:49;15.80;80.40
7317;DHT22;3699;51.462;6.696;2023-01-01T04:24:15;15.80;82.00
7317;DHT22;3699;51.462;6.696;2023-01-01T04:26:42;15.70;83.60
7317;DHT22;3699;51.462;6.696;2023-01-01T04:29:09;15.70;82.60
7317;DHT22;3699;51.462;6.696;2023-01-01T04:31:36;15.70;85.10
7317;DHT22;3699;51.462;6.696;2023-01-01T04:34:04;15.70;86.20
7317;DHT22;3699;51.462;6.696;2023-01-01T04:36:30;15.70;86.70
7317;DHT22;3699;51.462;6.696;2023-01-01T04:38:57;15.70;87.90
7317;DHT22;3699;51.462;6.696;2023-01-01T04:41:24;15.70;88.70
7317;DHT22;3699;51.462;6.696;2023-01-01T04:43:50;15.70;90.80
7317;DHT22;3699;51.462;6.696;2023-01-01T04:46:19;15.60;90.30
7317;DHT22;3699;51.462;6.696;2023-01-01T04:48:46;15.60;91.70
7317;DHT22;3699;51.462;6.696;2023-01-01T04:51:15;15.60;93.30
7317;DHT22;3699;51.462;6.696;2023-01-01T04:53:43;15.70;95.50
7317;DHT22;3699;51.462;6.696;2023-01-01T04:56:11;15.70;98.20
7317;DHT22;3699;51.462;6.696;2023-01-01T04:58:40;15.60;97.70
7317;DHT22;3699;51.462;6.696;2023-01-01T05:01:07;15.50;97.50
7317;DHT22;3699;51.462;6.696;2023-01-01T05:03:36;15.50;98.50
7317;DHT22;3699;51.462;6.696;2023-01-01T05:06:05;15.50;98.50
7317;DHT22;3699;51.462;6.696;2023-01-01T05:08:35;15.50;99.10
7317;DHT22;3699;51.462;6.696;2023-01-01T05:11:03;15.50;99.00
7317;DHT22;3699;51.462;6.696;2023-01-01T05:13:30;15.50;98.30
7317;DHT22;3699;51.462;6.696;2023-01-01T05:16:01;15.50;99.10
7317;DHT22;3699;51.462;6.696;2023-01-01T05:18:28;15.50;99.30
7317;DHT22;3699;51.462;6.696;2023-01-01T05:20:58;15.50;99.40
7317;DHT22;3699;51.462;6.696;2023-01-01T05:23:25;15.40;99.10
7317;DHT22;3699;51.462;6.696;2023-01-01T05:25:53;15.50;98.90
7317;DHT22;3699;51.462;6.696;2023-01-01T05:28:20;15.50;98.70
7317;DHT22;3699;51.462;6.696;2023-01-01T05:30:47;15.50;98.90
7317;DHT22;3699;51.462;6.696;2023-01-01T05:33:14;15.50;98.50
7317;DHT22;3699;51.462;6.696;2023-01-01T05:35:41;15.50;98.50
7317;DHT22;3699;51.462;6.696;2023-01-01T05:38:08;15.50;98.90
7317;DHT22;3699;51.462;6.696;2023-01-01T05:40:37;15.60;99.90
7317;DHT22;3699;51.462;6.696;2023-01-01T05:43:05;15.50;99.40
7317;DHT22;3699;51.462;6.696;2023-01-01T05:45:32;15.50;99.90
7317;DHT22;3699;51.462;6.696;2023-01-01T05:47:59;15.50;99.20
7317;DHT22;3699;51.462;6.696;2023-01-01T05:50:27;15.50;98.60
7317;DHT22;3699;51.462;6.696;2023-01-01T05:52:53;15.50;99.90
7317;DHT22;3699;51.462;6.696;2023-01-01T05:55:20;15.40;99.80
7317;DHT22;3699;51.462;6.696;2023-01-01T05:57:47;15.40;99.90
7317;DHT22;3699;51.462;6.696;2023-01-01T06:00:16;15.40;99.90
7317;DHT22;3699;51.462;6.696;2023-01-01T06:02:42;15.40;99.90
7317;DHT22;3699;51.462;6.696;2023-01-01T06:05:09;15.40;99.90
7317;DHT22;3699;51.462;6.696;2023-01-01T06:07:36;15.40;99.90
7317;DHT22;3699;51.462;6.696;2023-01-01T06:10:03;15.40;99.90
7317;DHT22;3699;51.462;6.696;2023-01-01T06:12:30;15.40;99.90
7317;DHT22;3699;51.462;6.696;2023-01-01T06:14:56;15.40;99.90
7317;DHT22;3699;51.462;6.696;2023-01-01T06:17:25;15.40;99.90
7317;DHT22;3699;51.462;6.696;2023-01-01T06:19:51;15.40;99.50
7317;DHT22;3699;51.462;6.696;2023-01-01T06:22:18;15.40;99.90
7317;DHT22;3699;51.462;6.696;2023-01-01T06:24:45;15.40;99.50
7317;DHT22;3699;51.462;6.696;2023-01-01T06:27:11;15.40;99.60
7317;DHT22;3699;51.462;6.696;2023-01-01T06:29:38;15.40;99.90
7317;DHT22;3699;51.462;6.696;2023-01-01T06:32:05;15.50;99.90
7317;DHT22;3699;51.462;6.696;2023-01-01T06:34:33;15.40;99.90
7317;DHT22;3699;51.462;6.696;2023-01-01T06:37:00;15.40;99.90
7317;DHT22;3699;51.462;6.696;2023-01-01T06:39:26;15.40;99.90
7317;DHT22;3699;51.462;6.696;2023-01-01T06:41:53;15.40;99.90
7317;DHT22;3699;51.462;6.696;2023-01-01T06:44:20;15.40;99.90
7317;DHT22;3699;51.462;6.696;2023-01-01T06:46:46;15.40;99.90
7317;DHT22;3699;51.462;6.696;2023-01-01T06:49:13;15.40;99.90
7317;DHT22;3699;51.462;6.696;2023-01-01T06:51:42;15.40;99.90
7317;DHT22;3699;51.462;6.696;2023-01-01T06:54:09;15.40;99.90
7317;DHT22;3699;51.462;6.696;2023-01-01T06:56:37;15.40;99.90
7317;DHT22;3699;51.462;6.696;2023-01-01T06:59:04;15.30;99.90
7317;DHT22;3699;51.462;6.696;2023-01-01T07:01:33;15.30;99.90
7317;DHT22;3699;51.462;6.696;2023-01-01T07:04:02;15.30;99.90
7317;DHT22;3699;51.462;6.696;2023-01-01T07:06:31;15.30;99.90
7317;DHT22;3699;51.462;6.696;2023-01-01T07:08:59;15.30;99.90
7317;DHT22;3699;51.462;6.696;2023-01-01T07:11:26;15.30;99.90
7317;DHT22;3699;51.462;6.696;2023-01-01T07:13:54;15.30;99.90
7317;DHT22;3699;51.462;6.696;2023-01-01T07:16:21;15.30;99.90
7317;DHT22;3699;51.462;6.696;2023-01-01T07:18:48;15.30;99.90
7317;DHT22;3699;51.462;6.696;2023-01-01T07:21:27;15.30;99.90
7317;DHT22;3699;51.462;6.696;2023-01-01T07:23:54;15.20;99.90
7317;DHT22;3699;51.462;6.696;2023-01-01T07:26:24;15.20;99.90
7317;DHT22;3699;51.462;6.696;2023-01-01T07:28:51;15.10;99.90
7317;DHT22;3699;51.462;6.696;2023-01-01T07:31:17;15.10;99.90
7317;DHT22;3699;51.462;6.696;2023-01-01T07:33:44;15.00;99.90
7317;DHT22;3699;51.462;6.696;2023-01-01T07:36:11;14.90;99.90
7317;DHT22;3699;51.462;6.696;2023-01-01T07:38:37;14.90;99.90
7317;DHT22;3699;51.462;6.696;2023-01-01T07:41:04;14.80;99.90
7317;DHT22;3699;51.462;6.696;2023-01-01T07:43:32;14.70;99.90
7317;DHT22;3699;51.462;6.696;2023-01-01T07:45:59;14.60;99.90
7317;DHT22;3699;51.462;6.696;2023-01-01T07:48:27;14.60;99.90
7317;DHT22;3699;51.462;6.696;2023-01-01T07:50:53;14.50;99.90
7317;DHT22;3699;51.462;6.696;2023-01-01T07:53:20;14.50;99.90
7317;DHT22;3699;51.462;6.696;2023-01-01T07:55:47;14.50;99.90
7317;DHT22;3699;51.462;6.696;2023-01-01T07:58:14;14.40;99.90
7317;DHT22;3699;51.462;6.696;2023-01-01T08:00:44;14.40;99.90
7317;DHT22;3699;51.462;6.696;2023-01-01T08:03:11;14.40;99.90
7317;DHT22;3699;51.462;6.696;2023-01-01T08:05:38;14.50;99.90
7317;DHT22;3699;51.462;6.696;2023-01-01T08:08:05;14.40;99.90
7317;DHT22;3699;51.462;6.696;2023-01-01T08:10:31;14.40;99.90
7317;DHT22;3699;51.462;6.696;2023-01-01T08:12:59;14.40;99.90
7317;DHT22;3699;51.462;6.696;2023-01-01T08:15:26;14.40;99.90
7317;DHT22;3699;51.462;6.696;2023-01-01T08:17:56;14.50;99.90
7317;DHT22;3699;51.462;6.696;2023-01-01T08:20:23;14.40;99.90
7317;DHT22;3699;51.462;6.696;2023-01-01T08:22:50;14.40;99.90
7317;DHT22;3699;51.462;6.696;2023-01-01T08:25:17;14.40;99.90
7317;DHT22;3699;51.462;6.696;2023-01-01T08:27:43;14.40;99.90
7317;DHT22;3699;51.462;6.696;2023-01-01T08:30:12;14.40;99.90
7317;DHT22;3699;51.462;6.696;2023-01-01T08:32:39;14.40;99.90
7317;DHT22;3699;51.462;6.696;2023-01-01T08:35:08;14.50;99.90
7317;DHT22;3699;51.462;6.696;2023-01-01T08:37:35;14.50;99.90
7317;DHT22;3699;51.462;6.696;2023-01-01T08:40:03;14.50;99.90
7317;DHT22;3699;51.462;6.696;2023-01-01T08:42:29;14.50;99.90
7317;DHT22;3699;51.462;6.696;2023-01-01T08:44:56;14.50;99.90
7317;DHT22;3699;51.462;6.696;2023-01-01T08:47:25;14.50;99.90
7317;DHT22;3699;51.462;6.696;2023-01-01T08:49:52;14.50;99.90
7317;DHT22;3699;51.462;6.696;2023-01-01T08:52:20;14.50;99.90
7317;DHT22;3699;51.462;6.696;2023-01-01T08:54:47;14.50;99.90
7317;DHT22;3699;51.462;6.696;2023-01-01T08:57:14;14.60;99.90
7317;DHT22;3699;51.462;6.696;2023-01-01T08:59:41;14.60;99.90
7317;DHT22;3699;51.462;6.696;2023-01-01T09:02:08;14.60;99.90
7317;DHT22;3699;51.462;6.696;2023-01-01T09:04:35;14.60;99.90
7317;DHT22;3699;51.462;6.696;2023-01-01T09:07:02;14.60;99.90
7317;DHT22;3699;51.462;6.696;2023-01-01T09:09:31;14.60;99.90
7317;DHT22;3699;51.462;6.696;2023-01-01T09:12:04;14.60;99.90
7317;DHT22;3699;51.462;6.696;2023-01-01T09:14:34;14.60;99.90
7317;DHT22;3699;51.462;6.696;2023-01-01T09:17:01;14.60;99.90
7317;DHT22;3699;51.462;6.696;2023-01-01T09:19:27;14.60;99.90
7317;DHT22;3699;51.462;6.696;2023-01-01T09:21:54;14.60;99.90
7317;DHT22;3699;51.462;6.696;2023-01-01T09:24:21;14.60;99.90
7317;DHT22;3699;51.462;6.696;2023-01-01T09:26:49;14.60;99.90
7317;DHT22;3699;51.462;6.696;2023-01-01T09:29:16;14.70;99.90
7317;DHT22;3699;51.462;6.696;2023-01-01T09:31:45;14.70;99.90
7317;DHT22;3699;51.462;6.696;2023-01-01T09:34:12;14.70;99.90
7317;DHT22;3699;51.462;6.696;2023-01-01T09:36:39;14.80;99.90
7317;DHT22;3699;51.462;6.696;2023-01-01T09:39:06;14.70;99.90
7317;DHT22;3699;51.462;6.696;2023-01-01T09:41:49;14.70;99.90
7317;DHT22;3699;51.462;6.696;2023-01-01T09:44:28;14.70;99.90
7317;DHT22;3699;51.462;6.696;2023-01-01T09:46:59;14.70;99.90
7317;DHT22;3699;51.462;6.696;2023-01-01T09:49:30;14.70;99.90
7317;DHT22;3699;51.462;6.696;2023-01-01T09:51:59;14.80;99.90
7317;DHT22;3699;51.462;6.696;2023-01-01T09:54:31;14.80;99.90
7317;DHT22;3699;51.462;6.696;2023-01-01T09:57:03;14.80;99.90
7317;DHT22;3699;51.462;6.696;2023-01-01T09:59:31;14.90;99.90
7317;DHT22;3699;51.462;6.696;2023-01-01T10:02:03;14.80;99.90
7317;DHT22;3699;51.462;6.696;2023-01-01T10:04:43;14.80;99.90
7317;DHT22;3699;51.462;6.696;2023-01-01T10:07:18;14.80;99.90
7317;DHT22;3699;51.462;6.696;2023-01-01T10:09:55;14.80;99.90
7317;DHT22;3699;51.462;6.696;2023-01-01T10:12:31;14.80;99.90
7317;DHT22;3699;51.462;6.696;2023-01-01T10:15:04;14.80;99.90
7317;DHT22;3699;51.462;6.696;2023-01-01T10:17:38;14.80;99.90
7317;DHT22;3699;51.462;6.696;2023-01-01T10:20:16;14.90;99.90
7317;DHT22;3699;51.462;6.696;2023-01-01T10:22:47;14.90;99.90
7317;DHT22;3699;51.462;6.696;2023-01-01T10:25:17;14.90;99.90
7317;DHT22;3699;51.462;6.696;2023-01-01T10:27:48;15.00;99.90
7317;DHT22;3699;51.462;6.696;2023-01-01T10:30:18;15.00;99.90
7317;DHT22;3699;51.462;6.696;2023-01-01T10:32:46;15.10;99.90
7317;DHT22;3699;51.462;6.696;2023-01-01T10:35:15;15.20;99.90
7317;DHT22;3699;51.462;6.696;2023-01-01T10:37:42;15.20;99.90
7317;DHT22;3699;51.462;6.696;2023-01-01T10:40:17;15.30;99.90
7317;DHT22;3699;51.462;6.696;2023-01-01T10:42:48;15.30;99.90
7317;DHT22;3699;51.462;6.696;2023-01-01T10:45:17;15.30;99.90
7317;DHT22;3699;51.462;6.696;2023-01-01T10:48:16;15.30;99.90
7317;DHT22;3699;51.462;6.696;2023-01-01T10:50:48;15.40;99.90
7317;DHT22;3699;51.462;6.696;2023-01-01T10:53:20;15.40;99.90
7317;DHT22;3699;51.462;6.696;2023-01-01T10:55:48;15.50;99.90
7317;DHT22;3699;51.462;6.696;2023-01-01T10:58:28;15.50;99.90
7317;DHT22;3699;51.462;6.696;2023-01-01T11:00:59;15.50;99.90
7317;DHT22;3699;51.462;6.696;2023-01-01T11:03:26;15.50;99.90
7317;DHT22;3699;51.462;6.696;2023-01-01T11:06:03;15.60;99.90
7317;DHT22;3699;51.462;6.696;2023-01-01T11:08:32;15.60;99.90
7317;DHT22;3699;51.462;6.696;2023-01-01T11:11:01;15.60;99.90
7317;DHT22;3699;51.462;6.696;2023-01-01T11:13:30;15.60;99.90
7317;DHT22;3699;51.462;6.696;2023-01-01T11:15:58;15.70;99.90
7317;DHT22;3699;51.462;6.696;2023-01-01T11:18:27;15.70;99.90
7317;DHT22;3699;51.462;6.696;2023-01-01T11:21:01;15.80;99.90
7317;DHT22;3699;51.462;6.696;2023-01-01T11:23:30;15.80;99.90
7317;DHT22;3699;51.462;6.696;2023-01-01T11:26:00;15.70;99.90
7317;DHT22;3699;51.462;6.696;2023-01-01T11:28:27;15.70;99.90
7317;DHT22;3699;51.462;6.696;2023-01-01T11:31:10;15.60;99.90
7317;DHT22;3699;51.462;6.696;2023-01-01T11:33:45;15.60;99.90
7317;DHT22;3699;51.462;6.696;2023-01-01T11:36:20;15.60;99.90
7317;DHT22;3699;51.462;6.696;2023-01-01T11:38:49;15.60;99.90
7317;DHT22;3699;51.462;6.696;2023-01-01T11:41:16;16.00;99.90
7317;DHT22;3699;51.462;6.696;2023-01-01T11:43:44;15.70;99.90
7317;DHT22;3699;51.462;6.696;2023-01-01T11:46:17;15.70;99.90
7317;DHT22;3699;51.462;6.696;2023-01-01T11:48:48;15.70;99.90
7317;DHT22;3699;51.462;6.696;2023-01-01T11:51:28;15.70;99.90
7317;DHT22;3699;51.462;6.696;2023-01-01T11:54:23;15.70;99.90
7317;DHT22;3699;51.462;6.696;2023-01-01T11:56:53;15.70;99.90
7317;DHT22;3699;51.462;6.696;2023-01-01T11:59:22;15.70;99.90
7317;DHT22;3699;51.462;6.696;2023-01-01T12:01:54;15.70;99.90
7317;DHT22;3699;51.462;6.696;2023-01-01T12:04:26;15.70;99.90
7317;DHT22;3699;51.462;6.696;2023-01-01T12:06:58;15.70;99.90
7317;DHT22;3699;51.462;6.696;2023-01-01T12:09:32;15.60;99.90
7317;DHT22;3699;51.462;6.696;2023-01-01T12:12:05;15.70;99.90
7317;DHT22;3699;51.462;6.696;2023-01-01T12:14:38;15.70;99.90
7317;DHT22;3699;51.462;6.696;2023-01-01T12:17:13;15.70;99.90
7317;DHT22;3699;51.462;6.696;2023-01-01T12:19:49;15.70;99.90
7317;DHT22;3699;51.462;6.696;2023-01-01T12:22:19;15.80;99.90
7317;DHT22;3699;51.462;6.696;2023-01-01T12:24:47;15.80;99.90
7317;DHT22;3699;51.462;6.696;2023-01-01T12:27:20;15.90;99.90
7317;DHT22;3699;51.462;6.696;2023-01-01T12:30:12;15.80;99.90
7317;DHT22;3699;51.462;6.696;2023-01-01T12:33:01;15.80;99.90
7317;DHT22;3699;51.462;6.696;2023-01-01T12:35:37;15.80;99.90
7317;DHT22;3699;51.462;6.696;2023-01-01T12:38:15;15.70;99.90
7317;DHT22;3699;51.462;6.696;2023-01-01T12:40:50;15.70;99.90
7317;DHT22;3699;51.462;6.696;2023-01-01T12:43:20;15.70;99.90
7317;DHT22;3699;51.462;6.696;2023-01-01T12:46:11;15.70;99.90
7317;DHT22;3699;51.462;6.696;2023-01-01T12:49:13;15.70;99.90
7317;DHT22;3699;51.462;6.696;2023-01-01T12:51:47;15.60;99.90
7317;DHT22;3699;51.462;6.696;2023-01-01T12:54:50;15.60;99.90
7317;DHT22;3699;51.462;6.696;2023-01-01T12:57:25;15.50;99.90
7317;DHT22;3699;51.462;6.696;2023-01-01T12:59:54;15.50;99.90
7317;DHT22;3699;51.462;6.696;2023-01-01T13:02:25;15.40;99.90
7317;DHT22;3699;51.462;6.696;2023-01-01T13:04:55;15.40;99.90
7317;DHT22;3699;51.462;6.696;2023-01-01T13:07:26;15.50;99.90
7317;DHT22;3699;51.462;6.696;2023-01-01T13:09:55;15.50;99.90
7317;DHT22;3699;51.462;6.696;2023-01-01T13:12:24;15.50;99.90
7317;DHT22;3699;51.462;6.696;2023-01-01T13:14:52;15.50;99.90
7317;DHT22;3699;51.462;6.696;2023-01-01T13:17:20;15.50;99.90
7317;DHT22;3699;51.462;6.696;2023-01-01T13:19:48;15.50;99.90
7317;DHT22;3699;51.462;6.696;2023-01-01T13:22:39;15.50;99.90
7317;DHT22;3699;51.462;6.696;2023-01-01T13:25:18;15.50;99.90
7317;DHT22;3699;51.462;6.696;2023-01-01T13:28:02;15.50;99.90
7317;DHT22;3699;51.462;6.696;2023-01-01T13:30:47;15.40;99.90
7317;DHT22;3699;51.462;6.696;2023-01-01T13:33:17;15.40;99.90
7317;DHT22;3699;51.462;6.696;2023-01-01T13:36:30;15.30;99.90
7317;DHT22;3699;51.462;6.696;2023-01-01T13:38:59;15.30;99.90
7317;DHT22;3699;51.462;6.696;2023-01-01T13:41:39;15.30;99.90
7317;DHT22;3699;51.462;6.696;2023-01-01T13:44:17;15.20;99.90
7317;DHT22;3699;51.462;6.696;2023-01-01T13:46:55;15.20;99.90
7317;DHT22;3699;51.462;6.696;2023-01-01T13:49:33;15.20;99.90
7317;DHT22;3699;51.462;6.696;2023-01-01T13:52:34;15.10;99.90
7317;DHT22;3699;51.462;6.696;2023-01-01T13:55:37;15.10;99.90
7317;DHT22;3699;51.462;6.696;2023-01-01T13:58:23;15.00;99.90
7317;DHT22;3699;51.462;6.696;2023-01-01T14:01:12;15.00;99.90
7317;DHT22;3699;51.462;6.696;2023-01-01T14:03:47;15.00;99.90
7317;DHT22;3699;51.462;6.696;2023-01-01T14:06:21;14.90;99.90
7317;DHT22;3699;51.462;6.696;2023-01-01T14:09:00;14.90;99.90
7317;DHT22;3699;51.462;6.696;2023-01-01T14:11:28;14.90;99.90
7317;DHT22;3699;51.462;6.696;2023-01-01T14:13:55;14.90;99.90
7317;DHT22;3699;51.462;6.696;2023-01-01T14:16:24;14.80;99.90
7317;DHT22;3699;51.462;6.696;2023-01-01T14:18:54;14.80;99.90
7317;DHT22;3699;51.462;6.696;2023-01-01T14:21:23;14.80;99.90
7317;DHT22;3699;51.462;6.696;2023-01-01T14:23:53;14.80;99.90
7317;DHT22;3699;51.462;6.696;2023-01-01T14:26:21;14.70;99.90
7317;DHT22;3699;51.462;6.696;2023-01-01T14:28:54;14.80;99.90
7317;DHT22;3699;51.462;6.696;2023-01-01T14:31:24;14.70;99.90
7317;DHT22;3699;51.462;6.696;2023-01-01T14:33:52;14.70;99.90
7317;DHT22;3699;51.462;6.696;2023-01-01T14:36:21;14.70;99.90
7317;DHT22;3699;51.462;6.696;2023-01-01T14:38:50;14.70;99.90
7317;DHT22;3699;51.462;6.696;2023-01-01T14:41:26;14.70;99.90
7317;DHT22;3699;51.462;6.696;2023-01-01T14:43:57;14.70;99.90
7317;DHT22;3699;51.462;6.696;2023-01-01T14:46:25;14.70;99.90
7317;DHT22;3699;51.462;6.696;2023-01-01T14:48:54;14.60;99.90
7317;DHT22;3699;51.462;6.696;2023-01-01T14:51:23;13.40;99.90
7317;DHT22;3699;51.462;6.696;2023-01-01T14:53:52;14.60;99.90
7317;DHT22;3699;51.462;6.696;2023-01-01T14:56:24;14.60;99.90
7317;DHT22;3699;51.462;6.696;2023-01-01T14:58:53;14.60;99.90
7317;DHT22;3699;51.462;6.696;2023-01-01T15:01:24;14.60;99.90
7317;DHT22;3699;51.462;6.696;2023-01-01T15:03:57;14.70;99.90
7317;DHT22;3699;51.462;6.696;2023-01-01T15:06:24;14.60;99.90
7317;DHT22;3699;51.462;6.696;2023-01-01T15:08:51;14.60;99.90
7317;DHT22;3699;51.462;6.696;2023-01-01T15:11:18;14.60;99.90
7317;DHT22;3699;51.462;6.696;2023-01-01T15:13:55;14.50;99.90
7317;DHT22;3699;51.462;6.696;2023-01-01T15:16:22;14.50;99.90
7317;DHT22;3699;51.462;6.696;2023-01-01T15:18:50;14.40;99.90
7317;DHT22;3699;51.462;6.696;2023-01-01T15:21:30;14.40;99.90
7317;DHT22;3699;51.462;6.696;2023-01-01T15:24:00;14.40;99.90
7317;DHT22;3699;51.462;6.696;2023-01-01T15:26:29;14.40;99.90
7317;DHT22;3699;51.462;6.696;2023-01-01T15:28:58;14.30;99.90
7317;DHT22;3699;51.462;6.696;2023-01-01T15:31:36;14.30;99.90
7317;DHT22;3699;51.462;6.696;2023-01-01T15:34:04;14.30;99.90
7317;DHT22;3699;51.462;6.696;2023-01-01T15:36:31;14.30;99.90
7317;DHT22;3699;51.462;6.696;2023-01-01T15:38:58;14.30;99.90
7317;DHT22;3699;51.462;6.696;2023-01-01T15:41:39;14.20;99.90
7317;DHT22;3699;51.462;6.696;2023-01-01T15:44:19;14.30;99.90
7317;DHT22;3699;51.462;6.696;2023-01-01T15:46:48;14.80;99.90
7317;DHT22;3699;51.462;6.696;2023-01-01T15:49:26;14.20;99.90
7317;DHT22;3699;51.462;6.696;2023-01-01T15:51:55;14.20;99.90
7317;DHT22;3699;51.462;6.696;2023-01-01T15:54:24;14.20;99.90
7317;DHT22;3699;51.462;6.696;2023-01-01T15:56:51;14.20;99.90
7317;DHT22;3699;51.462;6.696;2023-01-01T15:59:25;14.20;99.90
7317;DHT22;3699;51.462;6.696;2023-01-01T16:02:01;14.20;99.90
7317;DHT22;3699;51.462;6.696;2023-01-01T16:04:30;14.20;99.90
7317;DHT22;3699;51.462;6.696;2023-01-01T16:06:57;14.20;99.90
7317;DHT22;3699;51.462;6.696;2023-01-01T16:09:24;14.20;99.90
7317;DHT22;3699;51.462;6.696;2023-01-01T16:11:52;14.20;99.90
7317;DHT22;3699;51.462;6.696;2023-01-01T16:14:19;14.20;99.90
7317;DHT22;3699;51.462;6.696;2023-01-01T16:16:50;14.10;99.90
7317;DHT22;3699;51.462;6.696;2023-01-01T16:19:20;14.20;99.90
7317;DHT22;3699;51.462;6.696;2023-01-01T16:21:47;14.10;99.90
7317;DHT22;3699;51.462;6.696;2023-01-01T16:24:15;14.10;99.90